Sainte-Catherine, Canada
Current Conditions -  °F | °C
As of 12:00 AM on Saturday 29 Nov 2014 (Local Time) from CYUL Reporting Station
Few Clouds Few Clouds  
Wind Chill: 18°   Ceiling: Unl
Heat Index: 18°   Visibility: 15mi
Dew Point: 10°   Wind: 3mph
Humidity: 73%   Direction: 220°SW
Pressure: 30.2"   Gusts: NA
Location:  45.4°N, 73.58°W
Report Text: CYUL 290500Z 22003KT 15SM FEW130 M08/M12 A3020 RMK AC1 SLP227
Loading
Personal Weather Stations






























Interactive Weather Map New forecast layout! Learn more

10-Day Weather Forecast

Advertisements
Track Severe Weather on mobile